createdAt,value
2023-03-04T00:00:19.209Z,14.9
2023-03-04T00:01:27.533Z,14.9
2023-03-04T00:02:36.062Z,15
2023-03-04T00:03:44.384Z,15
2023-03-04T00:04:52.728Z,15
2023-03-04T00:06:01.245Z,15.1
2023-03-04T00:07:09.588Z,15.1
2023-03-04T00:08:17.888Z,15.1
2023-03-04T00:09:26.431Z,13.7
2023-03-04T00:10:34.760Z,13.7
2023-03-04T00:11:43.096Z,13.7
2023-03-04T00:12:51.645Z,12.3
2023-03-04T00:13:59.970Z,12.3
2023-03-04T00:15:08.257Z,12.3
2023-03-04T00:16:16.804Z,12.9
2023-03-04T00:17:25.111Z,12.9
2023-03-04T00:18:33.422Z,12.9
2023-03-04T00:19:41.962Z,13.2
2023-03-04T00:20:50.266Z,13.2
2023-03-04T00:21:58.599Z,13.2
2023-03-04T00:23:07.156Z,12.1
2023-03-04T00:24:15.459Z,12.1
2023-03-04T00:25:23.769Z,12.1
2023-03-04T00:26:32.307Z,12.4
2023-03-04T00:27:40.642Z,12.4
2023-03-04T00:28:49.946Z,12.4
2023-03-04T00:29:58.497Z,12.7
2023-03-04T00:31:06.787Z,12.7
2023-03-04T00:32:15.098Z,12.7
2023-03-04T00:33:23.631Z,12.1
2023-03-04T00:34:32.921Z,12.1
2023-03-04T00:35:40.301Z,12.1
2023-03-04T00:36:48.824Z,11
2023-03-04T00:37:57.134Z,11
2023-03-04T00:39:05.462Z,11
2023-03-04T00:40:13.982Z,11.7
2023-03-04T00:41:22.314Z,11.7
2023-03-04T00:42:30.623Z,11.7
2023-03-04T00:43:39.141Z,11.4
2023-03-04T00:44:47.489Z,11.4
2023-03-04T00:45:55.868Z,11.4
2023-03-04T00:47:04.308Z,11.7
2023-03-04T00:48:12.666Z,11.7
2023-03-04T00:49:20.968Z,11.7
2023-03-04T00:50:29.478Z,11.9
2023-03-04T00:51:37.807Z,11.9
2023-03-04T00:52:46.168Z,11.9
2023-03-04T00:53:54.664Z,11.5
2023-03-04T00:55:03.021Z,11.5
2023-03-04T00:56:11.308Z,11.5
2023-03-04T00:57:19.858Z,10.9
2023-03-04T00:58:28.181Z,10.9
2023-03-04T00:59:36.496Z,10.9
2023-03-04T01:00:45.026Z,12
2023-03-04T01:01:53.328Z,12
2023-03-04T01:03:01.658Z,12
2023-03-04T01:04:10.187Z,13.6
2023-03-04T01:05:18.509Z,13.6
2023-03-04T01:06:26.810Z,13.6
2023-03-04T01:07:35.347Z,12.6
2023-03-04T01:08:43.671Z,12.6
2023-03-04T01:09:51.981Z,12.6
2023-03-04T01:11:00.530Z,11.2
2023-03-04T01:12:08.839Z,11.2
2023-03-04T01:13:17.154Z,11.2
2023-03-04T01:14:25.699Z,11.8
2023-03-04T01:15:34.046Z,11.8
2023-03-04T01:16:42.412Z,11.8
2023-03-04T01:17:50.944Z,11.5
2023-03-04T01:18:59.228Z,11.5
2023-03-04T01:20:07.559Z,11.5
2023-03-04T01:21:16.076Z,12.6
2023-03-04T01:22:24.396Z,12.6
2023-03-04T01:23:32.724Z,12.6
2023-03-04T01:24:41.235Z,12.9
2023-03-04T01:25:49.572Z,12.9
2023-03-04T01:26:57.920Z,12.9
2023-03-04T01:28:06.428Z,14
2023-03-04T01:29:14.743Z,14
2023-03-04T01:30:23.063Z,14
2023-03-04T01:31:31.582Z,14.2
2023-03-04T01:32:39.911Z,14.2
2023-03-04T01:33:48.225Z,14.2
2023-03-04T01:34:56.770Z,14.3
2023-03-04T01:36:05.101Z,14.3
2023-03-04T01:37:13.399Z,14.3
2023-03-04T01:38:21.940Z,14.5
2023-03-04T01:39:30.249Z,14.5
2023-03-04T01:40:38.603Z,14.5
2023-03-04T01:41:47.122Z,14.6
2023-03-04T01:42:55.488Z,14.6
2023-03-04T01:44:03.782Z,14.6
2023-03-04T01:45:12.311Z,15.7
2023-03-04T01:46:20.665Z,15.7
2023-03-04T01:47:28.916Z,15.7
2023-03-04T01:48:37.547Z,15.5
2023-03-04T01:49:45.783Z,15.5
2023-03-04T01:50:54.095Z,15.5
2023-03-04T01:52:02.621Z,16.799999
2023-03-04T01:53:10.962Z,16.799999
2023-03-04T01:54:19.267Z,16.799999
2023-03-04T01:55:27.787Z,16.700001
2023-03-04T01:56:36.108Z,16.700001
2023-03-04T01:57:44.421Z,16.700001
2023-03-04T01:58:52.982Z,16
2023-03-04T02:00:01.283Z,16
2023-03-04T02:01:09.654Z,16
2023-03-04T02:02:18.135Z,16.5
2023-03-04T02:03:26.479Z,16.5
2023-03-04T02:04:34.923Z,16.5
2023-03-04T02:05:43.300Z,16.4
2023-03-04T02:06:51.621Z,16.4
2023-03-04T02:07:59.974Z,16.4
2023-03-04T02:09:08.499Z,16.299999
2023-03-04T02:10:16.800Z,16.299999
2023-03-04T02:11:25.122Z,16.299999
2023-03-04T02:12:33.632Z,16.6
2023-03-04T02:13:41.976Z,16.6
2023-03-04T02:14:50.338Z,16.6
2023-03-04T02:15:58.841Z,17.9
2023-03-04T02:17:07.133Z,17.9
2023-03-04T02:18:15.499Z,17.9
2023-03-04T02:19:24.031Z,16.299999
2023-03-04T02:20:32.342Z,16.299999
2023-03-04T02:21:40.654Z,16.299999
2023-03-04T02:22:49.184Z,16.799999
2023-03-04T02:23:57.520Z,16.799999
2023-03-04T02:25:05.829Z,16.799999
2023-03-04T02:26:14.337Z,16.4
2023-03-04T02:27:22.656Z,16.4
2023-03-04T02:28:30.991Z,16.4
2023-03-04T02:29:39.545Z,15.1
2023-03-04T02:30:47.904Z,15.1
2023-03-04T02:31:56.241Z,15.1
2023-03-04T02:33:04.705Z,18.700001
2023-03-04T02:34:13.107Z,18.700001
2023-03-04T02:35:21.460Z,18.700001
2023-03-04T02:36:29.971Z,19.700001
2023-03-04T02:37:38.261Z,19.700001
2023-03-04T02:38:46.583Z,19.700001
2023-03-04T02:39:55.122Z,15.8
2023-03-04T02:41:03.435Z,15.8
2023-03-04T02:42:11.752Z,15.8
2023-03-04T02:43:20.292Z,16.4
2023-03-04T02:44:28.614Z,16.4
2023-03-04T02:45:36.929Z,16.4
2023-03-04T02:46:45.529Z,18
2023-03-04T02:47:53.755Z,18
2023-03-04T02:49:02.097Z,18
2023-03-04T02:50:10.631Z,16.799999
2023-03-04T02:51:18.942Z,16.799999
2023-03-04T02:52:27.274Z,16.799999
2023-03-04T02:53:35.862Z,16.700001
2023-03-04T02:54:44.188Z,16.700001
2023-03-04T02:55:52.511Z,16.700001
2023-03-04T02:57:01.032Z,18.6
2023-03-04T02:58:09.336Z,18.6
2023-03-04T02:59:17.662Z,18.6
2023-03-04T03:00:26.183Z,20.6
2023-03-04T03:01:34.584Z,20.6
2023-03-04T03:02:42.834Z,20.6
2023-03-04T03:03:51.321Z,20.799999
2023-03-04T03:04:59.622Z,20.799999
2023-03-04T03:06:07.947Z,20.799999
2023-03-04T03:07:16.472Z,20.5
2023-03-04T03:08:24.788Z,20.5
2023-03-04T03:09:33.102Z,20.5
2023-03-04T03:10:41.626Z,21.1
2023-03-04T03:11:49.959Z,21.1
2023-03-04T03:12:58.278Z,21.1
2023-03-04T03:14:06.816Z,20.1
2023-03-04T03:15:15.144Z,20.1
2023-03-04T03:16:23.465Z,20.1
2023-03-04T03:17:32.004Z,17.700001
2023-03-04T03:18:40.328Z,17.700001
2023-03-04T03:19:48.617Z,17.700001
2023-03-04T03:20:57.138Z,16.299999
2023-03-04T03:22:05.452Z,16.299999
2023-03-04T03:23:13.758Z,16.299999
2023-03-04T03:24:22.291Z,17.4
2023-03-04T03:25:30.621Z,17.4
2023-03-04T03:26:38.923Z,17.4
2023-03-04T03:27:47.444Z,19.4
2023-03-04T03:28:55.793Z,19.4
2023-03-04T03:30:04.109Z,19.4
2023-03-04T03:31:12.660Z,19.200001
2023-03-04T03:32:20.955Z,19.200001
2023-03-04T03:33:29.258Z,19.200001
2023-03-04T03:34:37.827Z,18
2023-03-04T03:35:46.160Z,18
2023-03-04T03:36:54.457Z,18
2023-03-04T03:38:02.986Z,17
2023-03-04T03:39:11.298Z,17
2023-03-04T03:40:19.654Z,17
2023-03-04T03:41:28.188Z,16.299999
2023-03-04T03:42:36.494Z,16.299999
2023-03-04T03:43:44.835Z,16.299999
2023-03-04T03:44:53.352Z,16.9
2023-03-04T03:46:01.722Z,16.9
2023-03-04T03:47:09.984Z,16.9
2023-03-04T03:48:18.502Z,15.7
2023-03-04T03:49:26.822Z,15.7
2023-03-04T03:50:35.232Z,15.7
2023-03-04T03:51:43.679Z,15.8
2023-03-04T03:52:52.002Z,15.8
2023-03-04T03:54:00.341Z,15.8
2023-03-04T03:55:08.855Z,16.9
2023-03-04T03:56:17.172Z,16.9
2023-03-04T03:57:25.498Z,16.9
2023-03-04T03:58:34.039Z,16.4
2023-03-04T03:59:42.380Z,16.4
2023-03-04T04:00:50.691Z,16.4
2023-03-04T04:01:59.337Z,16.9
2023-03-04T04:03:07.558Z,16.9
2023-03-04T04:04:15.852Z,16.9
2023-03-04T04:05:24.358Z,16.9
2023-03-04T04:06:32.698Z,16.9
2023-03-04T04:07:40.974Z,16.9
2023-03-04T04:08:49.526Z,16.5
2023-03-04T04:09:57.834Z,16.5
2023-03-04T04:11:06.139Z,16.5
2023-03-04T04:12:14.657Z,15.8
2023-03-04T04:13:22.979Z,15.8
2023-03-04T04:14:31.295Z,15.8
2023-03-04T04:15:39.822Z,17.4
2023-03-04T04:16:48.284Z,17.4
2023-03-04T04:17:56.496Z,17.4
2023-03-04T04:19:05.037Z,17.6
2023-03-04T04:20:13.359Z,17.6
2023-03-04T04:21:21.702Z,17.6
2023-03-04T04:22:30.239Z,17.299999
2023-03-04T04:23:38.536Z,17.299999
2023-03-04T04:24:46.884Z,17.299999
2023-03-04T04:25:55.401Z,16.6
2023-03-04T04:27:03.753Z,16.6
2023-03-04T04:28:12.061Z,16.6
2023-03-04T04:29:20.592Z,17
2023-03-04T04:30:28.977Z,17
2023-03-04T04:31:37.272Z,17
2023-03-04T04:32:45.774Z,17.1
2023-03-04T04:33:54.093Z,17.1
2023-03-04T04:35:02.420Z,17.1
2023-03-04T04:36:10.938Z,16.9
2023-03-04T04:37:19.248Z,16.9
2023-03-04T04:38:27.621Z,16.9
2023-03-04T04:39:36.131Z,16.200001
2023-03-04T04:40:44.444Z,16.200001
2023-03-04T04:41:52.770Z,16.200001
2023-03-04T04:43:01.301Z,16.700001
2023-03-04T04:44:09.629Z,16.700001
2023-03-04T04:45:17.936Z,16.700001
2023-03-04T04:46:26.465Z,16.799999
2023-03-04T04:47:34.787Z,16.799999
2023-03-04T04:48:43.091Z,16.799999
2023-03-04T04:49:51.616Z,17.200001
2023-03-04T04:50:59.946Z,17.200001
2023-03-04T04:52:08.264Z,17.200001
2023-03-04T04:53:16.792Z,16.6
2023-03-04T04:54:25.165Z,16.6
2023-03-04T04:55:33.460Z,16.6
2023-03-04T04:56:41.981Z,16.700001
2023-03-04T04:57:50.324Z,16.700001
2023-03-04T04:58:58.648Z,16.700001
2023-03-04T05:00:07.187Z,17.1
2023-03-04T05:01:15.525Z,17.1
2023-03-04T05:02:23.805Z,17.1
2023-03-04T05:03:32.395Z,15.8
2023-03-04T05:04:40.679Z,15.8
2023-03-04T05:05:49.024Z,15.8
2023-03-04T05:06:57.538Z,16
2023-03-04T05:08:05.854Z,16
2023-03-04T05:09:14.188Z,16
2023-03-04T05:10:22.744Z,15.9
2023-03-04T05:11:31.048Z,15.9
2023-03-04T05:12:39.359Z,15.9
2023-03-04T05:13:47.926Z,16
2023-03-04T05:14:56.226Z,16
2023-03-04T05:16:04.568Z,16
2023-03-04T05:17:13.083Z,16.200001
2023-03-04T05:18:21.402Z,16.200001
2023-03-04T05:19:29.731Z,16.200001
2023-03-04T05:20:38.253Z,15.9
2023-03-04T05:21:46.565Z,15.9
2023-03-04T05:22:54.872Z,15.9
2023-03-04T05:24:03.404Z,15.4
2023-03-04T05:25:11.733Z,15.4
2023-03-04T05:26:20.070Z,15.4
2023-03-04T05:27:28.576Z,14.9
2023-03-04T05:28:36.898Z,14.9
2023-03-04T05:29:45.236Z,14.9
2023-03-04T05:30:53.769Z,15.3
2023-03-04T05:32:02.095Z,15.3
2023-03-04T05:33:10.397Z,15.3
2023-03-04T05:34:18.935Z,14.2
2023-03-04T05:35:29.027Z,14.2
2023-03-04T05:36:35.559Z,14.2
2023-03-04T05:37:44.084Z,14.7
2023-03-04T05:38:52.399Z,14.7
2023-03-04T05:40:00.726Z,14.7
2023-03-04T05:41:09.248Z,14.6
2023-03-04T05:42:17.596Z,14.6
2023-03-04T05:43:25.896Z,14.6
2023-03-04T05:44:34.423Z,14.9
2023-03-04T05:45:42.756Z,14.9
2023-03-04T05:46:51.118Z,14.9
2023-03-04T05:47:59.601Z,14
2023-03-04T05:49:07.918Z,14
2023-03-04T05:50:16.240Z,14
2023-03-04T05:51:24.759Z,14.3
2023-03-04T05:52:33.074Z,14.3
2023-03-04T05:53:41.405Z,14.3
2023-03-04T05:54:49.935Z,14.7
2023-03-04T05:55:58.252Z,14.7
2023-03-04T05:57:06.612Z,14.7
2023-03-04T05:58:15.149Z,13.8
2023-03-04T05:59:23.441Z,13.8
2023-03-04T06:00:31.764Z,13.8
2023-03-04T06:01:40.293Z,14
2023-03-04T06:02:48.664Z,14
2023-03-04T06:03:56.979Z,14
2023-03-04T06:05:05.464Z,13.1
2023-03-04T06:06:13.789Z,13.1
2023-03-04T06:07:22.096Z,13.1
2023-03-04T06:08:30.638Z,13.3
2023-03-04T06:09:38.968Z,13.3
2023-03-04T06:10:47.288Z,13.3
2023-03-04T06:11:55.801Z,15.3
2023-03-04T06:13:04.131Z,15.3
2023-03-04T06:14:12.517Z,15.3
2023-03-04T06:15:21.013Z,12.8
2023-03-04T06:16:29.361Z,12.8
2023-03-04T06:17:39.481Z,12.8
2023-03-04T06:18:46.530Z,12.7
2023-03-04T06:19:54.866Z,12.7
2023-03-04T06:21:03.198Z,12.7
2023-03-04T06:22:11.711Z,13
2023-03-04T06:23:20.035Z,13
2023-03-04T06:24:28.431Z,13
2023-03-04T06:25:36.912Z,12.2
2023-03-04T06:26:45.230Z,12.2
2023-03-04T06:27:55.122Z,12.2
2023-03-04T06:29:02.071Z,12.7
2023-03-04T06:30:10.414Z,12.7
2023-03-04T06:31:18.764Z,12.7
2023-03-04T06:32:27.299Z,12.5
2023-03-04T06:33:35.573Z,12.5
2023-03-04T06:34:43.925Z,12.5
2023-03-04T06:35:52.484Z,12.2
2023-03-04T06:37:00.781Z,12.2
2023-03-04T06:38:09.119Z,12.2
2023-03-04T06:39:17.643Z,12
2023-03-04T06:40:26.023Z,12
2023-03-04T06:41:34.345Z,12
2023-03-04T06:42:42.867Z,12.6
2023-03-04T06:43:51.173Z,12.6
2023-03-04T06:44:59.530Z,12.6
2023-03-04T06:46:08.080Z,10.9
2023-03-04T06:47:16.381Z,10.9
2023-03-04T06:48:24.709Z,10.9
2023-03-04T06:49:33.233Z,11.5
2023-03-04T06:50:41.565Z,11.5
2023-03-04T06:51:49.924Z,11.5
2023-03-04T06:52:58.466Z,10.6
2023-03-04T06:54:06.803Z,10.6
2023-03-04T06:55:15.136Z,10.6
2023-03-04T06:56:23.667Z,10.7
2023-03-04T06:57:31.975Z,10.7
2023-03-04T06:58:43.995Z,10.7
2023-03-04T06:59:53.116Z,10.4
2023-03-04T07:01:01.507Z,10.4
2023-03-04T07:02:09.768Z,10.4
2023-03-04T07:03:18.271Z,12.8
2023-03-04T07:04:26.621Z,12.8
2023-03-04T07:05:34.918Z,12.8
2023-03-04T07:06:43.431Z,27
2023-03-04T07:07:51.752Z,27
2023-03-04T07:09:00.106Z,27
2023-03-04T07:10:08.598Z,29.799999
2023-03-04T07:11:16.905Z,29.799999
2023-03-04T07:12:25.239Z,29.799999
2023-03-04T07:13:33.748Z,19.200001
2023-03-04T07:14:42.060Z,19.200001
2023-03-04T07:15:50.387Z,19.200001
2023-03-04T07:16:58.941Z,19.799999
2023-03-04T07:18:07.299Z,19.799999
2023-03-04T07:19:15.586Z,19.799999
2023-03-04T07:20:24.121Z,32.799999
2023-03-04T07:21:32.504Z,32.799999
2023-03-04T07:22:40.809Z,32.799999
2023-03-04T07:23:49.337Z,20.299999
2023-03-04T07:24:57.702Z,20.299999
2023-03-04T07:26:05.986Z,20.299999
2023-03-04T07:27:14.497Z,11.1
2023-03-04T07:28:22.803Z,11.1
2023-03-04T07:29:31.125Z,11.1
2023-03-04T07:30:39.661Z,12.1
2023-03-04T07:31:47.988Z,12.1
2023-03-04T07:32:56.313Z,12.1
2023-03-04T07:34:04.858Z,10
2023-03-04T07:35:13.180Z,10
2023-03-04T07:36:21.501Z,10
2023-03-04T07:37:30.042Z,11.4
2023-03-04T07:38:38.352Z,11.4
2023-03-04T07:39:46.673Z,11.4
2023-03-04T07:40:55.200Z,11.6
2023-03-04T07:42:03.555Z,11.6
2023-03-04T07:43:11.849Z,11.6
2023-03-04T07:44:20.375Z,10.2
2023-03-04T07:45:28.682Z,10.2
2023-03-04T07:46:36.989Z,10.2
2023-03-04T07:47:45.508Z,10.1
2023-03-04T07:48:53.821Z,10.1
2023-03-04T07:50:02.179Z,10.1
2023-03-04T07:51:10.713Z,9.2
2023-03-04T07:52:18.996Z,9.2
2023-03-04T07:53:27.304Z,9.2
2023-03-04T07:54:35.838Z,11
2023-03-04T07:55:44.173Z,11
2023-03-04T07:56:52.536Z,11
2023-03-04T07:58:01.072Z,17.200001
2023-03-04T07:59:09.414Z,17.200001
2023-03-04T08:00:17.746Z,17.200001
2023-03-04T08:01:26.313Z,9.4
2023-03-04T08:02:34.636Z,9.4
2023-03-04T08:03:42.987Z,9.4
2023-03-04T08:04:51.453Z,10.1
2023-03-04T08:05:59.865Z,10.1
2023-03-04T08:07:08.175Z,10.1
2023-03-04T08:08:17.411Z,8.8
2023-03-04T08:09:25.021Z,8.8
2023-03-04T08:10:33.340Z,8.8
2023-03-04T08:11:41.845Z,8.3
2023-03-04T08:12:50.173Z,8.3
2023-03-04T08:13:58.510Z,8.3
2023-03-04T08:15:07.055Z,10.7
2023-03-04T08:16:15.678Z,10.7
2023-03-04T08:17:23.736Z,10.7
2023-03-04T08:18:32.276Z,9.5
2023-03-04T08:19:40.725Z,9.5
2023-03-04T08:20:48.933Z,9.5
2023-03-04T08:21:57.492Z,7.6
2023-03-04T08:23:05.787Z,7.6
2023-03-04T08:24:14.101Z,7.6
2023-03-04T08:25:22.650Z,7.4
2023-03-04T08:26:30.945Z,7.4
2023-03-04T08:27:39.270Z,7.4
2023-03-04T08:28:47.824Z,7.3
2023-03-04T08:29:56.122Z,7.3
2023-03-04T08:31:04.478Z,7.3
2023-03-04T08:32:13.028Z,7.3
2023-03-04T08:33:21.274Z,7.3
2023-03-04T08:34:29.611Z,7.3
2023-03-04T08:35:38.230Z,7.6
2023-03-04T08:36:46.502Z,7.6
2023-03-04T08:37:54.932Z,7.6
2023-03-04T08:39:03.429Z,7.3
2023-03-04T08:40:11.755Z,7.3
2023-03-04T08:41:20.104Z,7.3
2023-03-04T08:42:28.628Z,6
2023-03-04T08:43:36.913Z,6
2023-03-04T08:44:45.225Z,6
2023-03-04T08:45:53.867Z,6.5
2023-03-04T08:47:02.125Z,6.5
2023-03-04T08:48:10.423Z,6.5
2023-03-04T08:49:18.950Z,6.5
2023-03-04T08:50:27.302Z,6.5
2023-03-04T08:51:35.575Z,6.5
2023-03-04T08:52:44.096Z,9
2023-03-04T08:53:52.492Z,9
2023-03-04T08:55:00.773Z,9
2023-03-04T08:56:09.343Z,7.1
2023-03-04T08:57:17.698Z,7.1
2023-03-04T08:58:26.019Z,7.1
2023-03-04T08:59:36.560Z,6.6
2023-03-04T09:00:42.870Z,6.6
2023-03-04T09:01:51.197Z,6.6
2023-03-04T09:02:59.683Z,5.9
2023-03-04T09:04:07.992Z,5.9
2023-03-04T09:05:16.336Z,5.9
2023-03-04T09:06:24.838Z,6
2023-03-04T09:07:33.148Z,6
2023-03-04T09:08:41.480Z,6
2023-03-04T09:09:50.039Z,6.3
2023-03-04T09:10:58.409Z,6.3
2023-03-04T09:12:06.734Z,6.3
2023-03-04T09:13:15.271Z,6.4
2023-03-04T09:14:23.587Z,6.4
2023-03-04T09:15:31.942Z,6.4
2023-03-04T09:16:40.506Z,5.8
2023-03-04T09:17:48.850Z,5.8
2023-03-04T09:18:57.230Z,5.8
2023-03-04T09:20:05.768Z,5.8
2023-03-04T09:21:14.112Z,5.8
2023-03-04T09:22:22.430Z,5.8
2023-03-04T09:23:30.951Z,5
2023-03-04T09:24:39.274Z,5
2023-03-04T09:25:47.662Z,5
2023-03-04T09:26:56.130Z,5.4
2023-03-04T09:28:04.450Z,5.4
2023-03-04T09:29:12.807Z,5.4
2023-03-04T09:30:21.356Z,4.6
2023-03-04T09:31:29.757Z,4.6
2023-03-04T09:32:38.006Z,4.6
2023-03-04T09:33:46.534Z,4.8
2023-03-04T09:34:54.883Z,4.8
2023-03-04T09:36:03.331Z,4.8
2023-03-04T09:37:11.763Z,4.9
2023-03-04T09:38:20.106Z,4.9
2023-03-04T09:39:28.424Z,4.9
2023-03-04T09:40:37.003Z,4.3
2023-03-04T09:41:45.313Z,4.3
2023-03-04T09:42:53.613Z,4.3
2023-03-04T09:44:02.151Z,4.5
2023-03-04T09:45:10.496Z,4.5
2023-03-04T09:46:18.844Z,4.5
2023-03-04T09:47:27.336Z,4
2023-03-04T09:48:35.653Z,4
2023-03-04T09:49:43.973Z,4
2023-03-04T09:50:52.504Z,4.4
2023-03-04T09:52:00.816Z,4.4
2023-03-04T09:53:09.179Z,4.4
2023-03-04T09:54:17.699Z,3.8
2023-03-04T09:55:26.076Z,3.8
2023-03-04T09:56:34.378Z,3.8
2023-03-04T09:57:42.950Z,3.9
2023-03-04T09:58:51.248Z,3.9
2023-03-04T09:59:59.585Z,3.9
2023-03-04T10:01:08.132Z,4.5
2023-03-04T10:02:16.455Z,4.5
2023-03-04T10:03:24.806Z,4.5
2023-03-04T10:04:33.320Z,4.4
2023-03-04T10:05:41.644Z,4.4
2023-03-04T10:06:49.980Z,4.4
2023-03-04T10:07:58.516Z,4.3
2023-03-04T10:09:06.856Z,4.3
2023-03-04T10:10:15.340Z,4.3
2023-03-04T10:11:23.752Z,3.7
2023-03-04T10:12:32.057Z,3.7
2023-03-04T10:13:40.404Z,3.7
2023-03-04T10:14:48.969Z,3.6
2023-03-04T10:15:57.379Z,3.6
2023-03-04T10:17:05.624Z,3.6
2023-03-04T10:18:14.160Z,4
2023-03-04T10:19:22.476Z,4
2023-03-04T10:20:30.800Z,4
2023-03-04T10:21:39.325Z,3.5
2023-03-04T10:22:47.647Z,3.5
2023-03-04T10:23:57.696Z,3.5
2023-03-04T10:25:04.459Z,3.6
2023-03-04T10:26:12.805Z,3.6
2023-03-04T10:27:21.136Z,3.6
2023-03-04T10:28:29.679Z,3
2023-03-04T10:29:38.019Z,3
2023-03-04T10:30:46.327Z,3
2023-03-04T10:31:54.953Z,3.4
2023-03-04T10:33:03.151Z,3.4
2023-03-04T10:34:11.476Z,3.4
2023-03-04T10:35:20.511Z,2.8
2023-03-04T10:36:28.305Z,2.8
2023-03-04T10:37:36.635Z,2.8
2023-03-04T10:38:45.222Z,3.1
2023-03-04T10:39:53.534Z,3.1
2023-03-04T10:41:01.876Z,3.1
2023-03-04T10:42:10.470Z,3
2023-03-04T10:43:18.711Z,3
2023-03-04T10:44:27.021Z,3
2023-03-04T10:45:35.620Z,2.7
2023-03-04T10:46:43.905Z,2.7
2023-03-04T10:47:52.245Z,2.7
2023-03-04T10:49:00.762Z,3
2023-03-04T10:50:09.095Z,3
2023-03-04T10:51:17.421Z,3
2023-03-04T10:52:25.938Z,2.6
2023-03-04T10:53:34.267Z,2.6
2023-03-04T10:54:42.575Z,2.6
2023-03-04T10:55:51.108Z,2.5
2023-03-04T10:56:59.442Z,2.5
2023-03-04T10:58:07.772Z,2.5
2023-03-04T10:59:16.282Z,2.8
2023-03-04T11:00:24.593Z,2.8
2023-03-04T11:01:32.947Z,2.8
2023-03-04T11:02:41.440Z,2.5
2023-03-04T11:03:49.839Z,2.5
2023-03-04T11:04:58.113Z,2.5
2023-03-04T11:06:06.675Z,3
2023-03-04T11:07:15.007Z,3
2023-03-04T11:08:23.345Z,3
2023-03-04T11:09:31.870Z,2.8
2023-03-04T11:10:40.224Z,2.8
2023-03-04T11:11:48.595Z,2.8
2023-03-04T11:12:57.130Z,2.7
2023-03-04T11:14:05.466Z,2.7
2023-03-04T11:15:13.772Z,2.7
2023-03-04T11:16:22.340Z,3.4
2023-03-04T11:17:30.655Z,3.4
2023-03-04T11:18:38.954Z,3.4
2023-03-04T11:19:47.509Z,2.4
2023-03-04T11:20:55.843Z,2.4
2023-03-04T11:22:04.190Z,2.4
2023-03-04T11:23:12.722Z,2.7
2023-03-04T11:24:28.601Z,2.7
2023-03-04T11:25:29.363Z,2.7
2023-03-04T11:26:37.907Z,2.9
2023-03-04T11:27:46.219Z,2.9
2023-03-04T11:28:54.572Z,2.9
2023-03-04T11:30:03.105Z,2.6
2023-03-04T11:31:11.424Z,2.6
2023-03-04T11:32:19.934Z,2.6
2023-03-04T11:33:28.274Z,2.6
2023-03-04T11:34:36.558Z,2.6
2023-03-04T11:35:44.884Z,2.6
2023-03-04T11:36:53.400Z,2.9
2023-03-04T11:38:01.724Z,2.9
2023-03-04T11:39:10.037Z,2.9
2023-03-04T11:40:18.601Z,2.5
2023-03-04T11:41:26.869Z,2.5
2023-03-04T11:42:35.202Z,2.5
2023-03-04T11:43:43.722Z,2.6
2023-03-04T11:44:52.047Z,2.6
2023-03-04T11:46:00.472Z,2.6
2023-03-04T11:47:08.881Z,2.6
2023-03-04T11:48:17.210Z,2.6
2023-03-04T11:49:25.554Z,2.6
2023-03-04T11:50:34.024Z,2.2
2023-03-04T11:51:42.339Z,2.2
2023-03-04T11:52:50.666Z,2.2
2023-03-04T11:53:59.161Z,2.5
2023-03-04T11:55:07.485Z,2.5
2023-03-04T11:56:15.805Z,2.5
2023-03-04T11:57:24.321Z,2.2
2023-03-04T11:58:32.628Z,2.2
2023-03-04T11:59:40.958Z,2.2
2023-03-04T12:00:49.458Z,2.3
2023-03-04T12:01:57.794Z,2.3
2023-03-04T12:03:06.091Z,2.3
2023-03-04T12:04:14.693Z,1.8
2023-03-04T12:05:22.961Z,1.8
2023-03-04T12:06:31.225Z,1.8
2023-03-04T12:07:39.750Z,1.8
2023-03-04T12:08:48.062Z,1.8
2023-03-04T12:09:56.366Z,1.8
2023-03-04T12:11:04.896Z,2.1
2023-03-04T12:12:13.240Z,2.1
2023-03-04T12:13:21.531Z,2.1
2023-03-04T12:14:30.043Z,2
2023-03-04T12:15:38.386Z,2
2023-03-04T12:16:46.674Z,2
2023-03-04T12:17:55.190Z,1.5
2023-03-04T12:19:03.517Z,1.5
2023-03-04T12:20:11.793Z,1.5
2023-03-04T12:21:20.514Z,1.5
2023-03-04T12:22:28.668Z,1.5
2023-03-04T12:23:36.970Z,1.5
2023-03-04T12:24:45.495Z,1.6
2023-03-04T12:25:53.859Z,1.6
2023-03-04T12:27:02.124Z,1.6
2023-03-04T12:28:10.651Z,1.6
2023-03-04T12:29:19.089Z,1.6
2023-03-04T12:30:27.283Z,1.6
2023-03-04T12:31:35.869Z,4.4
2023-03-04T12:32:44.116Z,4.4
2023-03-04T12:33:52.428Z,4.4
2023-03-04T12:35:00.947Z,8.7
2023-03-04T12:36:09.260Z,8.7
2023-03-04T12:37:17.945Z,8.7
2023-03-04T12:38:26.090Z,4.8
2023-03-04T12:39:34.419Z,4.8
2023-03-04T12:40:42.716Z,4.8
2023-03-04T12:41:51.266Z,1.8
2023-03-04T12:42:59.588Z,1.8
2023-03-04T12:44:07.894Z,1.8
2023-03-04T12:45:16.440Z,1.7
2023-03-04T12:46:24.809Z,1.7
2023-03-04T12:47:33.067Z,1.7
2023-03-04T12:48:41.601Z,1.5
2023-03-04T12:49:49.927Z,1.5
2023-03-04T12:50:58.239Z,1.5
2023-03-04T12:52:06.769Z,1.6
2023-03-04T12:53:15.118Z,1.6
2023-03-04T12:54:23.400Z,1.6
2023-03-04T12:55:31.922Z,1.6
2023-03-04T12:56:40.247Z,1.6
2023-03-04T12:57:48.575Z,1.6
2023-03-04T12:58:57.092Z,1.9
2023-03-04T13:00:05.424Z,1.9
2023-03-04T13:01:13.751Z,1.9
2023-03-04T13:02:22.299Z,2.1
2023-03-04T13:03:30.796Z,2.1
2023-03-04T13:04:38.962Z,2.1
2023-03-04T13:05:47.501Z,1.5
2023-03-04T13:06:55.913Z,1.5
2023-03-04T13:08:04.156Z,1.5
2023-03-04T13:09:12.694Z,1.3
2023-03-04T13:10:20.991Z,1.3
2023-03-04T13:11:29.324Z,1.3
2023-03-04T13:12:37.873Z,1.5
2023-03-04T13:13:46.172Z,1.5
2023-03-04T13:14:54.574Z,1.5
2023-03-04T13:16:03.072Z,1.7
2023-03-04T13:17:11.374Z,1.7
2023-03-04T13:18:19.704Z,1.7
2023-03-04T13:19:28.237Z,1.7
2023-03-04T13:20:36.583Z,1.7
2023-03-04T13:21:44.910Z,1.7
2023-03-04T13:22:53.554Z,1.8
2023-03-04T13:24:01.760Z,1.8
2023-03-04T13:25:10.137Z,1.8
2023-03-04T13:26:18.626Z,1.5
2023-03-04T13:27:26.973Z,1.5
2023-03-04T13:28:35.287Z,1.5
2023-03-04T13:29:43.798Z,1.3
2023-03-04T13:30:52.123Z,1.3
2023-03-04T13:32:00.595Z,1.3
2023-03-04T13:33:09.040Z,1.7
2023-03-04T13:34:17.327Z,1.7
2023-03-04T13:35:25.693Z,1.7
2023-03-04T13:36:34.172Z,1.5
2023-03-04T13:37:42.520Z,1.5
2023-03-04T13:38:50.860Z,1.5
2023-03-04T13:39:59.371Z,1.8
2023-03-04T13:41:07.716Z,1.8
2023-03-04T13:42:16.011Z,1.8
2023-03-04T13:43:24.571Z,3.2
2023-03-04T13:44:32.888Z,3.2
2023-03-04T13:45:41.212Z,3.2
2023-03-04T13:46:49.746Z,19
2023-03-04T13:47:58.053Z,19
2023-03-04T13:49:06.379Z,19
2023-03-04T13:50:14.902Z,5.4
2023-03-04T13:51:29.145Z,5.4
2023-03-04T13:52:31.549Z,5.4
2023-03-04T13:53:40.118Z,2.3
2023-03-04T13:54:48.470Z,2.3
2023-03-04T13:55:56.778Z,2.3
2023-03-04T13:57:05.332Z,1.6
2023-03-04T13:58:13.667Z,1.6
2023-03-04T13:59:21.998Z,1.6
2023-03-04T14:00:30.542Z,2.1
2023-03-04T14:01:38.842Z,2.1
2023-03-04T14:02:47.201Z,2.1
2023-03-04T14:03:55.726Z,1.5
2023-03-04T14:05:04.025Z,1.5
2023-03-04T14:06:12.357Z,1.5
2023-03-04T14:07:20.869Z,1.8
2023-03-04T14:08:29.204Z,1.8
2023-03-04T14:09:37.533Z,1.8
2023-03-04T14:10:46.053Z,1.8
2023-03-04T14:11:54.352Z,1.8
2023-03-04T14:13:02.725Z,1.8
2023-03-04T14:14:11.209Z,2.9
2023-03-04T14:15:19.530Z,2.9
2023-03-04T14:16:27.944Z,2.9
2023-03-04T14:17:36.378Z,1.6
2023-03-04T14:18:44.708Z,1.6
2023-03-04T14:19:54.034Z,1.6
2023-03-04T14:21:01.560Z,1.5
2023-03-04T14:22:09.887Z,1.5
2023-03-04T14:23:18.206Z,1.5
2023-03-04T14:24:26.748Z,1.8
2023-03-04T14:25:36.758Z,1.8
2023-03-04T14:26:43.372Z,1.8
2023-03-04T14:27:51.907Z,1.8
2023-03-04T14:29:00.268Z,1.8
2023-03-04T14:30:08.552Z,1.8
2023-03-04T14:31:17.144Z,1.8
2023-03-04T15:03:59.093Z,0
2023-03-04T15:05:16.051Z,0
2023-03-04T15:06:15.689Z,0
2023-03-04T15:07:24.240Z,14.8
2023-03-04T15:08:32.596Z,14.8
2023-03-04T15:09:41.011Z,14.8
2023-03-04T15:10:49.638Z,3
2023-03-04T15:11:58.003Z,3
2023-03-04T15:13:06.351Z,3
2023-03-04T15:14:14.908Z,11.3
2023-03-04T15:15:23.254Z,11.3
2023-03-04T15:16:31.800Z,11.3
2023-03-04T15:17:40.256Z,5.4
2023-03-04T15:18:48.571Z,5.4
2023-03-04T15:19:56.913Z,5.4
2023-03-04T15:21:05.405Z,11.6
2023-03-04T15:22:13.747Z,11.6
2023-03-04T15:23:22.109Z,11.6
2023-03-04T15:24:30.591Z,16.299999
2023-03-04T15:25:38.915Z,16.299999
2023-03-04T15:26:47.251Z,16.299999
2023-03-04T15:27:55.794Z,8.6
2023-03-04T15:29:04.127Z,8.6
2023-03-04T15:30:12.433Z,8.6
2023-03-04T15:31:20.984Z,14.2
2023-03-04T15:32:29.330Z,14.2
2023-03-04T15:33:37.616Z,14.2
2023-03-04T15:34:46.148Z,12
2023-03-04T15:35:54.548Z,12
2023-03-04T15:37:02.788Z,12
2023-03-04T15:38:11.334Z,2.4
2023-03-04T15:39:19.638Z,2.4
2023-03-04T15:40:27.958Z,2.4
2023-03-04T15:41:36.522Z,2.7
2023-03-04T15:42:44.840Z,2.7
2023-03-04T15:43:53.186Z,2.7
2023-03-04T15:45:01.715Z,2.6
2023-03-04T15:46:10.080Z,2.6
2023-03-04T15:47:18.348Z,2.6